sensor_id;sensor_type;location;lat;lon;timestamp;temperature;humidity
36352;DHT22;22382;44.768;17.206;2022-09-09T00:04:43;21.60;99.90
36352;DHT22;22382;44.768;17.206;2022-09-09T00:07:33;21.50;99.90
36352;DHT22;22382;44.768;17.206;2022-09-09T00:15:18;21.40;99.90
36352;DHT22;22382;44.768;17.206;2022-09-09T00:23:12;21.30;99.90
36352;DHT22;22382;44.768;17.206;2022-09-09T00:29:33;21.10;99.90
36352;DHT22;22382;44.768;17.206;2022-09-09T00:31:32;21.00;99.90
36352;DHT22;22382;44.768;17.206;2022-09-09T00:34:19;21.00;99.90
36352;DHT22;22382;44.768;17.206;2022-09-09T00:36:50;20.90;99.90
36352;DHT22;22382;44.768;17.206;2022-09-09T00:42:02;20.90;99.90
36352;DHT22;22382;44.768;17.206;2022-09-09T00:44:37;20.90;99.90
36352;DHT22;22382;44.768;17.206;2022-09-09T00:47:09;20.80;99.90
36352;DHT22;22382;44.768;17.206;2022-09-09T00:57:38;20.20;99.90
36352;DHT22;22382;44.768;17.206;2022-09-09T01:08:13;20.00;99.90
36352;DHT22;22382;44.768;17.206;2022-09-09T01:10:53;20.10;99.90
36352;DHT22;22382;44.768;17.206;2022-09-09T01:13:26;20.10;99.90
36352;DHT22;22382;44.768;17.206;2022-09-09T01:15:54;20.10;99.90
36352;DHT22;22382;44.768;17.206;2022-09-09T01:18:31;20.10;99.90
36352;DHT22;22382;44.768;17.206;2022-09-09T01:21:08;20.10;99.90
36352;DHT22;22382;44.768;17.206;2022-09-09T01:24:05;20.10;99.90
36352;DHT22;22382;44.768;17.206;2022-09-09T01:26:44;20.10;99.90
36352;DHT22;22382;44.768;17.206;2022-09-09T01:29:16;20.10;99.90
36352;DHT22;22382;44.768;17.206;2022-09-09T01:32:02;20.00;99.90
36352;DHT22;22382;44.768;17.206;2022-09-09T01:34:33;20.10;99.90
36352;DHT22;22382;44.768;17.206;2022-09-09T01:37:09;20.10;99.90
36352;DHT22;22382;44.768;17.206;2022-09-09T01:39:38;20.00;99.90
36352;DHT22;22382;44.768;17.206;2022-09-09T01:42:09;20.00;99.90
36352;DHT22;22382;44.768;17.206;2022-09-09T01:44:36;20.00;99.90
36352;DHT22;22382;44.768;17.206;2022-09-09T01:47:05;19.90;99.90
36352;DHT22;22382;44.768;17.206;2022-09-09T01:49:32;19.90;99.90
36352;DHT22;22382;44.768;17.206;2022-09-09T01:51:59;19.90;99.90
36352;DHT22;22382;44.768;17.206;2022-09-09T01:54:29;19.90;99.90
36352;DHT22;22382;44.768;17.206;2022-09-09T02:02:21;19.90;99.90
36352;DHT22;22382;44.768;17.206;2022-09-09T02:04:56;19.80;99.90
36352;DHT22;22382;44.768;17.206;2022-09-09T02:07:42;19.80;99.90
36352;DHT22;22382;44.768;17.206;2022-09-09T02:10:25;19.80;99.90
36352;DHT22;22382;44.768;17.206;2022-09-09T02:13:09;19.70;99.90
36352;DHT22;22382;44.768;17.206;2022-09-09T02:18:08;19.70;99.90
36352;DHT22;22382;44.768;17.206;2022-09-09T02:20:38;19.70;99.90
36352;DHT22;22382;44.768;17.206;2022-09-09T02:23:07;19.70;99.90
36352;DHT22;22382;44.768;17.206;2022-09-09T02:25:36;19.70;99.90
36352;DHT22;22382;44.768;17.206;2022-09-09T02:28:06;19.70;99.90
36352;DHT22;22382;44.768;17.206;2022-09-09T02:30:37;19.70;99.90
36352;DHT22;22382;44.768;17.206;2022-09-09T02:33:07;19.70;99.90
36352;DHT22;22382;44.768;17.206;2022-09-09T02:35:38;19.70;99.90
36352;DHT22;22382;44.768;17.206;2022-09-09T02:38:10;19.70;99.90
36352;DHT22;22382;44.768;17.206;2022-09-09T02:40:38;19.60;99.90
36352;DHT22;22382;44.768;17.206;2022-09-09T02:43:05;19.70;99.90
36352;DHT22;22382;44.768;17.206;2022-09-09T02:51:10;19.50;99.90
36352;DHT22;22382;44.768;17.206;2022-09-09T02:53:54;19.50;99.90
36352;DHT22;22382;44.768;17.206;2022-09-09T02:56:25;19.40;99.90
36352;DHT22;22382;44.768;17.206;2022-09-09T02:58:55;19.40;99.90
36352;DHT22;22382;44.768;17.206;2022-09-09T03:01:22;19.40;99.90
36352;DHT22;22382;44.768;17.206;2022-09-09T03:03:49;19.40;99.90
36352;DHT22;22382;44.768;17.206;2022-09-09T03:06:16;19.30;99.90
36352;DHT22;22382;44.768;17.206;2022-09-09T03:08:43;19.30;99.90
36352;DHT22;22382;44.768;17.206;2022-09-09T03:11:16;19.30;99.90
36352;DHT22;22382;44.768;17.206;2022-09-09T03:13:43;19.20;99.90
36352;DHT22;22382;44.768;17.206;2022-09-09T03:16:10;19.30;99.90
36352;DHT22;22382;44.768;17.206;2022-09-09T03:18:37;19.20;99.90
36352;DHT22;22382;44.768;17.206;2022-09-09T03:21:04;19.20;99.90
36352;DHT22;22382;44.768;17.206;2022-09-09T03:23:31;19.20;99.90
36352;DHT22;22382;44.768;17.206;2022-09-09T03:25:58;19.20;99.90
36352;DHT22;22382;44.768;17.206;2022-09-09T03:28:25;19.20;99.90
36352;DHT22;22382;44.768;17.206;2022-09-09T03:31:02;19.20;99.90
36352;DHT22;22382;44.768;17.206;2022-09-09T03:33:30;19.20;99.90
36352;DHT22;22382;44.768;17.206;2022-09-09T03:35:58;19.20;99.90
36352;DHT22;22382;44.768;17.206;2022-09-09T03:38:25;19.10;99.90
36352;DHT22;22382;44.768;17.206;2022-09-09T03:40:53;19.10;99.90
36352;DHT22;22382;44.768;17.206;2022-09-09T03:43:28;19.10;99.90
36352;DHT22;22382;44.768;17.206;2022-09-09T03:45:56;19.00;99.90
36352;DHT22;22382;44.768;17.206;2022-09-09T03:48:26;19.00;99.90
36352;DHT22;22382;44.768;17.206;2022-09-09T03:50:55;19.00;99.90
36352;DHT22;22382;44.768;17.206;2022-09-09T03:53:28;18.90;99.90
36352;DHT22;22382;44.768;17.206;2022-09-09T03:55:56;18.80;99.90
36352;DHT22;22382;44.768;17.206;2022-09-09T03:58:27;18.80;99.90
36352;DHT22;22382;44.768;17.206;2022-09-09T04:00:58;18.80;99.90
36352;DHT22;22382;44.768;17.206;2022-09-09T04:03:26;18.70;99.90
36352;DHT22;22382;44.768;17.206;2022-09-09T04:05:55;18.70;99.90
36352;DHT22;22382;44.768;17.206;2022-09-09T04:08:23;18.70;99.90
36352;DHT22;22382;44.768;17.206;2022-09-09T04:10:54;18.70;99.90
36352;DHT22;22382;44.768;17.206;2022-09-09T04:13:24;18.70;99.90
36352;DHT22;22382;44.768;17.206;2022-09-09T04:15:57;18.70;99.90
36352;DHT22;22382;44.768;17.206;2022-09-09T04:18:25;18.70;99.90
36352;DHT22;22382;44.768;17.206;2022-09-09T04:20:53;18.60;99.90
36352;DHT22;22382;44.768;17.206;2022-09-09T04:23:20;18.60;99.90
36352;DHT22;22382;44.768;17.206;2022-09-09T04:25:49;18.60;99.90
36352;DHT22;22382;44.768;17.206;2022-09-09T04:28:17;18.60;99.90
36352;DHT22;22382;44.768;17.206;2022-09-09T04:30:45;18.60;99.90
36352;DHT22;22382;44.768;17.206;2022-09-09T04:33:13;18.60;99.90
36352;DHT22;22382;44.768;17.206;2022-09-09T04:35:47;18.60;99.90
36352;DHT22;22382;44.768;17.206;2022-09-09T04:38:16;18.70;99.90
36352;DHT22;22382;44.768;17.206;2022-09-09T04:40:46;18.70;99.90
36352;DHT22;22382;44.768;17.206;2022-09-09T04:43:14;18.80;99.90
36352;DHT22;22382;44.768;17.206;2022-09-09T04:45:47;18.90;99.90
36352;DHT22;22382;44.768;17.206;2022-09-09T04:48:15;18.90;99.90
36352;DHT22;22382;44.768;17.206;2022-09-09T04:50:42;19.00;99.90
36352;DHT22;22382;44.768;17.206;2022-09-09T04:53:09;19.00;99.90
36352;DHT22;22382;44.768;17.206;2022-09-09T04:55:36;19.00;99.90
36352;DHT22;22382;44.768;17.206;2022-09-09T04:58:07;19.10;99.90
36352;DHT22;22382;44.768;17.206;2022-09-09T05:00:35;19.10;99.90
36352;DHT22;22382;44.768;17.206;2022-09-09T05:03:06;19.20;99.90
36352;DHT22;22382;44.768;17.206;2022-09-09T05:05:35;19.30;99.90
36352;DHT22;22382;44.768;17.206;2022-09-09T05:08:06;19.40;99.90
36352;DHT22;22382;44.768;17.206;2022-09-09T05:10:37;19.40;99.90
36352;DHT22;22382;44.768;17.206;2022-09-09T05:13:05;19.40;99.90
36352;DHT22;22382;44.768;17.206;2022-09-09T05:15:33;19.50;99.90
36352;DHT22;22382;44.768;17.206;2022-09-09T05:18:01;19.50;99.90
36352;DHT22;22382;44.768;17.206;2022-09-09T05:20:29;19.50;99.90
36352;DHT22;22382;44.768;17.206;2022-09-09T05:22:56;19.50;99.90
36352;DHT22;22382;44.768;17.206;2022-09-09T05:25:24;19.50;99.90
36352;DHT22;22382;44.768;17.206;2022-09-09T05:27:53;19.50;99.90
36352;DHT22;22382;44.768;17.206;2022-09-09T05:30:21;19.40;99.90
36352;DHT22;22382;44.768;17.206;2022-09-09T05:32:49;19.40;99.90
36352;DHT22;22382;44.768;17.206;2022-09-09T05:35:16;19.40;99.90
36352;DHT22;22382;44.768;17.206;2022-09-09T05:37:45;19.40;99.90
36352;DHT22;22382;44.768;17.206;2022-09-09T05:40:12;19.40;99.90
36352;DHT22;22382;44.768;17.206;2022-09-09T05:42:40;19.40;99.90
36352;DHT22;22382;44.768;17.206;2022-09-09T05:45:08;19.50;99.90
36352;DHT22;22382;44.768;17.206;2022-09-09T05:47:36;19.70;99.90
36352;DHT22;22382;44.768;17.206;2022-09-09T05:50:04;19.90;99.90
36352;DHT22;22382;44.768;17.206;2022-09-09T05:52:31;20.10;99.90
36352;DHT22;22382;44.768;17.206;2022-09-09T05:54:59;20.20;99.90
36352;DHT22;22382;44.768;17.206;2022-09-09T05:57:26;20.30;99.90
36352;DHT22;22382;44.768;17.206;2022-09-09T05:59:53;20.50;99.90
36352;DHT22;22382;44.768;17.206;2022-09-09T06:02:20;20.70;99.90
36352;DHT22;22382;44.768;17.206;2022-09-09T06:04:47;20.60;99.90
36352;DHT22;22382;44.768;17.206;2022-09-09T06:07:14;20.70;99.90
36352;DHT22;22382;44.768;17.206;2022-09-09T06:09:41;21.00;99.90
36352;DHT22;22382;44.768;17.206;2022-09-09T06:12:08;21.20;99.90
36352;DHT22;22382;44.768;17.206;2022-09-09T06:14:35;21.40;99.90
36352;DHT22;22382;44.768;17.206;2022-09-09T06:17:03;21.60;99.90
36352;DHT22;22382;44.768;17.206;2022-09-09T06:19:30;21.80;99.90
36352;DHT22;22382;44.768;17.206;2022-09-09T06:21:57;21.90;99.90
36352;DHT22;22382;44.768;17.206;2022-09-09T06:24:25;22.10;99.90
36352;DHT22;22382;44.768;17.206;2022-09-09T06:26:52;22.30;99.90
36352;DHT22;22382;44.768;17.206;2022-09-09T06:29:20;22.30;99.90
36352;DHT22;22382;44.768;17.206;2022-09-09T06:31:47;22.40;99.90
36352;DHT22;22382;44.768;17.206;2022-09-09T06:34:14;22.60;99.90
36352;DHT22;22382;44.768;17.206;2022-09-09T06:36:41;22.80;99.90
36352;DHT22;22382;44.768;17.206;2022-09-09T06:39:09;23.00;99.90
36352;DHT22;22382;44.768;17.206;2022-09-09T06:41:41;23.10;99.90
36352;DHT22;22382;44.768;17.206;2022-09-09T06:44:09;23.00;99.90
36352;DHT22;22382;44.768;17.206;2022-09-09T06:46:38;23.30;99.90
36352;DHT22;22382;44.768;17.206;2022-09-09T06:49:08;23.50;99.90
36352;DHT22;22382;44.768;17.206;2022-09-09T06:51:36;24.00;99.90
36352;DHT22;22382;44.768;17.206;2022-09-09T06:54:10;24.40;99.90
36352;DHT22;22382;44.768;17.206;2022-09-09T06:56:39;24.70;99.90
36352;DHT22;22382;44.768;17.206;2022-09-09T06:59:10;24.90;99.90
36352;DHT22;22382;44.768;17.206;2022-09-09T07:01:39;24.80;99.90
36352;DHT22;22382;44.768;17.206;2022-09-09T07:04:21;24.60;99.90
36352;DHT22;22382;44.768;17.206;2022-09-09T07:06:48;24.50;99.90
36352;DHT22;22382;44.768;17.206;2022-09-09T07:09:16;24.40;99.90
36352;DHT22;22382;44.768;17.206;2022-09-09T07:11:49;24.30;99.90
36352;DHT22;22382;44.768;17.206;2022-09-09T07:14:19;24.30;99.90
36352;DHT22;22382;44.768;17.206;2022-09-09T07:16:46;24.30;99.90
36352;DHT22;22382;44.768;17.206;2022-09-09T07:19:14;24.40;99.90
36352;DHT22;22382;44.768;17.206;2022-09-09T07:21:42;24.40;99.90
36352;DHT22;22382;44.768;17.206;2022-09-09T07:24:11;24.50;99.90
36352;DHT22;22382;44.768;17.206;2022-09-09T07:26:40;24.50;99.90
36352;DHT22;22382;44.768;17.206;2022-09-09T07:29:08;24.60;99.90
36352;DHT22;22382;44.768;17.206;2022-09-09T07:31:37;24.60;99.90
36352;DHT22;22382;44.768;17.206;2022-09-09T07:34:05;24.60;99.90
36352;DHT22;22382;44.768;17.206;2022-09-09T07:36:34;24.70;99.90
36352;DHT22;22382;44.768;17.206;2022-09-09T07:39:05;24.70;99.90
36352;DHT22;22382;44.768;17.206;2022-09-09T07:41:36;24.90;99.90
36352;DHT22;22382;44.768;17.206;2022-09-09T07:44:12;24.80;99.90
36352;DHT22;22382;44.768;17.206;2022-09-09T07:46:39;24.80;99.90
36352;DHT22;22382;44.768;17.206;2022-09-09T07:49:07;24.90;99.90
36352;DHT22;22382;44.768;17.206;2022-09-09T07:51:43;24.90;99.90
36352;DHT22;22382;44.768;17.206;2022-09-09T07:54:13;24.90;99.90
36352;DHT22;22382;44.768;17.206;2022-09-09T07:56:41;25.00;99.90
36352;DHT22;22382;44.768;17.206;2022-09-09T07:59:09;25.00;99.90
36352;DHT22;22382;44.768;17.206;2022-09-09T08:01:41;24.80;99.90
36352;DHT22;22382;44.768;17.206;2022-09-09T08:04:12;24.80;99.90
36352;DHT22;22382;44.768;17.206;2022-09-09T08:06:58;24.80;99.90
36352;DHT22;22382;44.768;17.206;2022-09-09T08:09:26;24.90;99.90
36352;DHT22;22382;44.768;17.206;2022-09-09T08:11:56;24.80;99.90
36352;DHT22;22382;44.768;17.206;2022-09-09T08:14:23;25.00;99.90
36352;DHT22;22382;44.768;17.206;2022-09-09T08:16:51;24.80;99.90
36352;DHT22;22382;44.768;17.206;2022-09-09T08:19:20;25.00;99.90
36352;DHT22;22382;44.768;17.206;2022-09-09T08:21:48;25.10;99.90
36352;DHT22;22382;44.768;17.206;2022-09-09T08:24:15;25.10;99.90
36352;DHT22;22382;44.768;17.206;2022-09-09T08:26:44;24.80;99.90
36352;DHT22;22382;44.768;17.206;2022-09-09T08:29:13;24.60;99.90
36352;DHT22;22382;44.768;17.206;2022-09-09T08:34:11;24.80;99.90
36352;DHT22;22382;44.768;17.206;2022-09-09T08:36:41;24.90;99.90
36352;DHT22;22382;44.768;17.206;2022-09-09T08:39:11;24.90;99.90
36352;DHT22;22382;44.768;17.206;2022-09-09T08:42:43;24.20;99.90
36352;DHT22;22382;44.768;17.206;2022-09-09T08:50:28;24.60;99.90
36352;DHT22;22382;44.768;17.206;2022-09-09T08:58:21;24.90;99.90
36352;DHT22;22382;44.768;17.206;2022-09-09T09:11:40;25.60;99.90
36352;DHT22;22382;44.768;17.206;2022-09-09T09:14:21;25.60;99.90
36352;DHT22;22382;44.768;17.206;2022-09-09T09:19:52;25.90;99.90
36352;DHT22;22382;44.768;17.206;2022-09-09T09:25:37;26.30;99.90
36352;DHT22;22382;44.768;17.206;2022-09-09T09:28:16;26.40;99.90
36352;DHT22;22382;44.768;17.206;2022-09-09T09:31:10;26.60;99.90
36352;DHT22;22382;44.768;17.206;2022-09-09T09:33:43;26.10;99.90
36352;DHT22;22382;44.768;17.206;2022-09-09T09:36:13;26.40;99.90
36352;DHT22;22382;44.768;17.206;2022-09-09T09:38:58;26.20;99.90
36352;DHT22;22382;44.768;17.206;2022-09-09T09:41:57;25.90;99.90
36352;DHT22;22382;44.768;17.206;2022-09-09T09:44:37;26.20;99.90
36352;DHT22;22382;44.768;17.206;2022-09-09T09:47:15;26.60;99.90
36352;DHT22;22382;44.768;17.206;2022-09-09T09:49:59;27.20;99.90
36352;DHT22;22382;44.768;17.206;2022-09-09T09:52:34;27.30;99.90
36352;DHT22;22382;44.768;17.206;2022-09-09T09:55:14;27.40;99.90
36352;DHT22;22382;44.768;17.206;2022-09-09T09:57:41;27.40;99.90
36352;DHT22;22382;44.768;17.206;2022-09-09T10:00:22;27.30;99.90
36352;DHT22;22382;44.768;17.206;2022-09-09T10:02:53;27.40;99.90
36352;DHT22;22382;44.768;17.206;2022-09-09T10:05:45;27.70;98.80
36352;DHT22;22382;44.768;17.206;2022-09-09T10:08:14;27.90;98.30
36352;DHT22;22382;44.768;17.206;2022-09-09T10:11:07;27.40;98.80
36352;DHT22;22382;44.768;17.206;2022-09-09T10:19:00;27.00;99.60
36352;DHT22;22382;44.768;17.206;2022-09-09T10:24:32;27.30;99.00
36352;DHT22;22382;44.768;17.206;2022-09-09T10:27:36;27.10;99.90
36352;DHT22;22382;44.768;17.206;2022-09-09T10:30:11;26.70;99.90
36352;DHT22;22382;44.768;17.206;2022-09-09T10:32:48;26.40;99.90
36352;DHT22;22382;44.768;17.206;2022-09-09T10:35:31;26.40;99.90
36352;DHT22;22382;44.768;17.206;2022-09-09T10:46:05;26.60;99.90
36352;DHT22;22382;44.768;17.206;2022-09-09T10:51:53;27.40;99.90
36352;DHT22;22382;44.768;17.206;2022-09-09T11:00:10;27.90;93.40
36352;DHT22;22382;44.768;17.206;2022-09-09T11:02:41;28.20;93.00
36352;DHT22;22382;44.768;17.206;2022-09-09T11:08:04;28.00;89.00
36352;DHT22;22382;44.768;17.206;2022-09-09T11:13:23;28.70;77.10
36352;DHT22;22382;44.768;17.206;2022-09-09T11:18:41;28.70;77.80
36352;DHT22;22382;44.768;17.206;2022-09-09T11:21:19;29.20;75.40
36352;DHT22;22382;44.768;17.206;2022-09-09T11:24:15;28.70;78.20
36352;DHT22;22382;44.768;17.206;2022-09-09T11:30:22;28.60;76.60
36352;DHT22;22382;44.768;17.206;2022-09-09T11:40:45;28.00;95.60
36352;DHT22;22382;44.768;17.206;2022-09-09T11:43:19;28.50;92.80
36352;DHT22;22382;44.768;17.206;2022-09-09T11:45:53;28.20;93.40
36352;DHT22;22382;44.768;17.206;2022-09-09T11:48:33;28.20;91.70
36352;DHT22;22382;44.768;17.206;2022-09-09T11:51:10;28.00;91.90
36352;DHT22;22382;44.768;17.206;2022-09-09T11:53:58;28.30;89.30
36352;DHT22;22382;44.768;17.206;2022-09-09T11:56:45;28.20;92.20
36352;DHT22;22382;44.768;17.206;2022-09-09T11:59:28;28.30;92.20
36352;DHT22;22382;44.768;17.206;2022-09-09T12:02:01;28.40;93.80
36352;DHT22;22382;44.768;17.206;2022-09-09T12:04:38;28.60;94.50
36352;DHT22;22382;44.768;17.206;2022-09-09T12:09:50;28.80;92.20
36352;DHT22;22382;44.768;17.206;2022-09-09T12:12:21;28.30;94.00
36352;DHT22;22382;44.768;17.206;2022-09-09T12:17:45;27.70;94.60
36352;DHT22;22382;44.768;17.206;2022-09-09T12:23:17;27.10;97.70
36352;DHT22;22382;44.768;17.206;2022-09-09T12:26:00;27.10;97.60
36352;DHT22;22382;44.768;17.206;2022-09-09T12:34:48;27.40;96.10
36352;DHT22;22382;44.768;17.206;2022-09-09T12:39:55;27.80;93.80
36352;DHT22;22382;44.768;17.206;2022-09-09T12:42:24;27.90;91.80
36352;DHT22;22382;44.768;17.206;2022-09-09T12:45:01;28.20;91.70
36352;DHT22;22382;44.768;17.206;2022-09-09T12:47:40;28.30;92.80
36352;DHT22;22382;44.768;17.206;2022-09-09T12:52:55;29.00;92.00
36352;DHT22;22382;44.768;17.206;2022-09-09T12:55:27;29.00;91.20
36352;DHT22;22382;44.768;17.206;2022-09-09T12:57:57;28.50;92.00
36352;DHT22;22382;44.768;17.206;2022-09-09T13:00:26;28.40;93.70
36352;DHT22;22382;44.768;17.206;2022-09-09T13:02:56;28.60;92.80
36352;DHT22;22382;44.768;17.206;2022-09-09T13:05:31;28.80;93.20
36352;DHT22;22382;44.768;17.206;2022-09-09T13:08:02;28.90;92.40
36352;DHT22;22382;44.768;17.206;2022-09-09T13:10:33;28.90;90.90
36352;DHT22;22382;44.768;17.206;2022-09-09T13:13:21;28.90;91.70
36352;DHT22;22382;44.768;17.206;2022-09-09T13:15:54;28.80;89.50
36352;DHT22;22382;44.768;17.206;2022-09-09T13:18:41;28.50;91.60
36352;DHT22;22382;44.768;17.206;2022-09-09T13:21:09;28.40;91.80
36352;DHT22;22382;44.768;17.206;2022-09-09T13:23:37;28.20;92.40
36352;DHT22;22382;44.768;17.206;2022-09-09T13:26:31;27.80;94.60
36352;DHT22;22382;44.768;17.206;2022-09-09T13:29:18;28.10;94.40
36352;DHT22;22382;44.768;17.206;2022-09-09T13:31:45;28.40;92.00
36352;DHT22;22382;44.768;17.206;2022-09-09T13:34:34;28.30;91.20
36352;DHT22;22382;44.768;17.206;2022-09-09T13:37:06;28.10;92.50
36352;DHT22;22382;44.768;17.206;2022-09-09T13:39:51;28.00;94.40
36352;DHT22;22382;44.768;17.206;2022-09-09T13:42:29;28.30;93.40
36352;DHT22;22382;44.768;17.206;2022-09-09T13:44:58;27.90;94.50
36352;DHT22;22382;44.768;17.206;2022-09-09T13:47:34;27.70;96.70
36352;DHT22;22382;44.768;17.206;2022-09-09T13:52:52;27.60;97.30
36352;DHT22;22382;44.768;17.206;2022-09-09T13:55:25;27.70;98.00
36352;DHT22;22382;44.768;17.206;2022-09-09T13:58:01;27.60;99.70
36352;DHT22;22382;44.768;17.206;2022-09-09T14:00:30;27.40;99.90
36352;DHT22;22382;44.768;17.206;2022-09-09T14:02:58;27.20;99.90
36352;DHT22;22382;44.768;17.206;2022-09-09T14:05:28;27.20;99.90
36352;DHT22;22382;44.768;17.206;2022-09-09T14:07:57;27.20;99.90
36352;DHT22;22382;44.768;17.206;2022-09-09T14:10:24;27.30;99.90
36352;DHT22;22382;44.768;17.206;2022-09-09T14:12:51;27.20;99.90
36352;DHT22;22382;44.768;17.206;2022-09-09T14:15:19;27.10;99.90
36352;DHT22;22382;44.768;17.206;2022-09-09T14:17:46;26.90;99.90
36352;DHT22;22382;44.768;17.206;2022-09-09T14:20:15;26.90;99.90
36352;DHT22;22382;44.768;17.206;2022-09-09T14:22:44;27.00;99.90
36352;DHT22;22382;44.768;17.206;2022-09-09T14:25:11;27.00;99.90
36352;DHT22;22382;44.768;17.206;2022-09-09T14:27:40;27.20;99.90
36352;DHT22;22382;44.768;17.206;2022-09-09T14:30:08;27.20;99.90
36352;DHT22;22382;44.768;17.206;2022-09-09T14:32:35;27.40;99.90
36352;DHT22;22382;44.768;17.206;2022-09-09T14:35:02;27.30;99.90
36352;DHT22;22382;44.768;17.206;2022-09-09T14:37:29;27.00;99.90
36352;DHT22;22382;44.768;17.206;2022-09-09T14:39:58;26.80;99.90
36352;DHT22;22382;44.768;17.206;2022-09-09T14:42:25;26.50;99.90
36352;DHT22;22382;44.768;17.206;2022-09-09T14:44:53;26.70;99.90
36352;DHT22;22382;44.768;17.206;2022-09-09T14:47:20;26.70;99.90
36352;DHT22;22382;44.768;17.206;2022-09-09T14:49:47;26.40;99.90
36352;DHT22;22382;44.768;17.206;2022-09-09T14:52:16;26.20;99.90
36352;DHT22;22382;44.768;17.206;2022-09-09T14:54:43;26.30;99.90
36352;DHT22;22382;44.768;17.206;2022-09-09T14:57:10;26.60;99.90
36352;DHT22;22382;44.768;17.206;2022-09-09T14:59:37;26.40;99.90
36352;DHT22;22382;44.768;17.206;2022-09-09T15:02:04;25.30;99.90
36352;DHT22;22382;44.768;17.206;2022-09-09T15:04:31;24.00;99.90
36352;DHT22;22382;44.768;17.206;2022-09-09T15:06:58;23.30;99.90
36352;DHT22;22382;44.768;17.206;2022-09-09T15:09:25;23.00;99.90
36352;DHT22;22382;44.768;17.206;2022-09-09T15:11:52;23.00;99.90
36352;DHT22;22382;44.768;17.206;2022-09-09T15:14:19;23.20;99.90
36352;DHT22;22382;44.768;17.206;2022-09-09T15:16:49;23.40;99.90
36352;DHT22;22382;44.768;17.206;2022-09-09T15:19:16;23.70;99.90
36352;DHT22;22382;44.768;17.206;2022-09-09T15:21:43;24.00;99.90
36352;DHT22;22382;44.768;17.206;2022-09-09T15:24:10;24.10;99.90
36352;DHT22;22382;44.768;17.206;2022-09-09T15:26:37;24.10;99.90
36352;DHT22;22382;44.768;17.206;2022-09-09T15:29:08;23.90;99.90
36352;DHT22;22382;44.768;17.206;2022-09-09T15:31:35;23.80;99.90
36352;DHT22;22382;44.768;17.206;2022-09-09T15:34:06;23.70;99.90
36352;DHT22;22382;44.768;17.206;2022-09-09T15:36:39;23.60;99.90
36352;DHT22;22382;44.768;17.206;2022-09-09T15:39:11;23.60;99.90
36352;DHT22;22382;44.768;17.206;2022-09-09T15:41:43;23.40;99.90
36352;DHT22;22382;44.768;17.206;2022-09-09T15:44:12;23.40;99.90
36352;DHT22;22382;44.768;17.206;2022-09-09T15:46:41;23.10;99.90
36352;DHT22;22382;44.768;17.206;2022-09-09T15:49:14;23.00;99.90
36352;DHT22;22382;44.768;17.206;2022-09-09T15:51:43;23.00;99.90
36352;DHT22;22382;44.768;17.206;2022-09-09T15:54:16;23.10;99.90
36352;DHT22;22382;44.768;17.206;2022-09-09T15:56:46;23.10;99.90
36352;DHT22;22382;44.768;17.206;2022-09-09T15:59:15;23.10;99.90
36352;DHT22;22382;44.768;17.206;2022-09-09T16:01:43;23.00;99.90
36352;DHT22;22382;44.768;17.206;2022-09-09T16:04:11;22.80;99.90
36352;DHT22;22382;44.768;17.206;2022-09-09T16:06:38;22.60;99.90
36352;DHT22;22382;44.768;17.206;2022-09-09T16:09:06;22.50;99.90
36352;DHT22;22382;44.768;17.206;2022-09-09T16:11:36;22.40;99.90
36352;DHT22;22382;44.768;17.206;2022-09-09T16:14:04;22.30;99.90
36352;DHT22;22382;44.768;17.206;2022-09-09T16:16:33;22.30;99.90
36352;DHT22;22382;44.768;17.206;2022-09-09T16:19:10;22.30;99.90
36352;DHT22;22382;44.768;17.206;2022-09-09T16:21:44;22.30;99.90
36352;DHT22;22382;44.768;17.206;2022-09-09T16:24:15;22.30;99.90
36352;DHT22;22382;44.768;17.206;2022-09-09T16:26:47;22.20;99.90
36352;DHT22;22382;44.768;17.206;2022-09-09T16:29:15;22.20;99.90
36352;DHT22;22382;44.768;17.206;2022-09-09T16:31:44;22.20;99.90
36352;DHT22;22382;44.768;17.206;2022-09-09T16:34:11;22.20;99.90
36352;DHT22;22382;44.768;17.206;2022-09-09T16:36:40;22.20;99.90
36352;DHT22;22382;44.768;17.206;2022-09-09T16:39:12;22.10;99.90
36352;DHT22;22382;44.768;17.206;2022-09-09T16:41:41;22.00;99.90
36352;DHT22;22382;44.768;17.206;2022-09-09T16:44:11;21.90;99.90
36352;DHT22;22382;44.768;17.206;2022-09-09T16:46:40;21.50;99.90
36352;DHT22;22382;44.768;17.206;2022-09-09T16:49:10;21.30;99.90
36352;DHT22;22382;44.768;17.206;2022-09-09T16:51:49;21.20;99.90
36352;DHT22;22382;44.768;17.206;2022-09-09T16:54:18;21.20;99.90
36352;DHT22;22382;44.768;17.206;2022-09-09T16:56:47;21.30;99.90
36352;DHT22;22382;44.768;17.206;2022-09-09T16:59:17;21.40;99.90
36352;DHT22;22382;44.768;17.206;2022-09-09T17:01:46;21.40;99.90
36352;DHT22;22382;44.768;17.206;2022-09-09T17:04:16;21.40;99.90
36352;DHT22;22382;44.768;17.206;2022-09-09T17:06:48;21.40;99.90
36352;DHT22;22382;44.768;17.206;2022-09-09T17:09:20;21.50;99.90
36352;DHT22;22382;44.768;17.206;2022-09-09T17:11:48;21.50;99.90
36352;DHT22;22382;44.768;17.206;2022-09-09T17:14:18;21.50;99.90
36352;DHT22;22382;44.768;17.206;2022-09-09T17:16:46;21.50;99.90
36352;DHT22;22382;44.768;17.206;2022-09-09T17:19:14;21.50;99.90
36352;DHT22;22382;44.768;17.206;2022-09-09T17:21:41;21.40;99.90
36352;DHT22;22382;44.768;17.206;2022-09-09T17:24:28;21.40;99.90
36352;DHT22;22382;44.768;17.206;2022-09-09T17:26:58;21.40;99.90
36352;DHT22;22382;44.768;17.206;2022-09-09T17:29:25;21.30;99.90
36352;DHT22;22382;44.768;17.206;2022-09-09T17:31:53;21.30;99.90
36352;DHT22;22382;44.768;17.206;2022-09-09T17:34:20;21.20;99.90
36352;DHT22;22382;44.768;17.206;2022-09-09T17:36:47;21.20;99.90
36352;DHT22;22382;44.768;17.206;2022-09-09T17:39:14;21.20;99.90
36352;DHT22;22382;44.768;17.206;2022-09-09T17:41:41;21.20;99.90
36352;DHT22;22382;44.768;17.206;2022-09-09T17:44:09;21.20;99.90
36352;DHT22;22382;44.768;17.206;2022-09-09T17:46:42;21.20;99.90
36352;DHT22;22382;44.768;17.206;2022-09-09T17:49:14;21.10;99.90
36352;DHT22;22382;44.768;17.206;2022-09-09T17:51:42;21.00;99.90
36352;DHT22;22382;44.768;17.206;2022-09-09T17:54:15;20.90;99.90
36352;DHT22;22382;44.768;17.206;2022-09-09T17:56:43;20.90;99.90
36352;DHT22;22382;44.768;17.206;2022-09-09T17:59:12;20.90;99.90
36352;DHT22;22382;44.768;17.206;2022-09-09T18:01:41;20.90;99.90
36352;DHT22;22382;44.768;17.206;2022-09-09T18:04:12;20.90;99.90
36352;DHT22;22382;44.768;17.206;2022-09-09T18:06:45;20.80;99.90
36352;DHT22;22382;44.768;17.206;2022-09-09T18:09:17;20.80;99.90